KPNE/PNE METAR and TAF weather

Enter ICAO airport designator
Station Type Date Time Source
KPNE METAR 2020/07/03 12:54 UTC NOAA

KPNE 031254Z 32010KT 10SM CLR 31/18 A2987 RMK AO2 SLP115 T03060178


Station Type Date Time Source
KPNE Decoded METAR 2020/07/03 12:54 UTC NOAA

N.E. PHILADELPHIA AIRPORT, PA, United States (KPNE) 40-05N 075-01W 28M
Jul 03, 2020 - 08:54 AM EDT / 2020.07.03 1254 UTC
Wind: from the NW (320 degrees) at 12 MPH (10 KT):0
Visibility: 10 mile(s):0
Sky conditions: clear
Temperature: 87.1 F (30.6 C)
Dew Point: 64.0 F (17.8 C)
Relative Humidity: 46%
Pressure (altimeter): 29.87 in. Hg (1011 hPa)
ob: KPNE 031254Z 32010KT 10SM CLR 31/18 A2987 RMK AO2 SLP115 T03060178
cycle: 13

Station Type Date Time Source
KPNE TAF 2020/07/03 12:22 UTC NOAA

TAF KPNE 031120Z 0312/0412 31004KT P6SM SCT130
FM031500 32006KT P6SM BKN100
FM032100 05007KT P6SM VCSH BKN070
FM040300 08006KT P6SM BKN045
FM040600 06005KT P6SM BKN020

Example: see airport list